Flight Track Log - Related Links

Times and Time Zones

All times are in EDT time to prevent confusion due to time zone crossing. See the N200EA flight status page for this flight to view local times or setup timezone preferences in your user account.

Time Position Orientation Groundspeed Altitude Reporting Facility
EDT Latitude Longitude Course Direction KTS MPH feet Rate Location/Type
Wed 12:18:14 PM 33.9167 -84.2833 23° Northeast 157 181 2,500  Level Atlanta TRACON
Wed 12:19:14 PM 33.9500 -84.2667 23° Northeast 188 216 3,900 1,250 Climbing Atlanta TRACON
Wed 12:20:14 PM 34.0167 -84.2667 360° North 205 236 5,000 1,400 Climbing Atlanta TRACON
Wed 12:21:14 PM 34.0667 -84.2833 345° North 195 224 6,700 1,447 Climbing Atlanta TRACON
Wed 12:23:04 PM 34.1508 -84.3575 324° Northwest 204 235 9,100 1,412 Climbing Atlanta Center
Wed 12:24:04 PM 34.1967 -84.3981 324° Northwest 209 241 10,700 950 Climbing Atlanta Center
Wed 12:25:04 PM 34.2486 -84.4383 327° Northwest 209 241 11,000 150 Climbing Atlanta Center
Wed 12:26:04 PM 34.3028 -84.4889 322° Northwest 233 268 11,000  Level Atlanta Center
Wed 12:27:04 PM 34.3567 -84.5444 320° Northwest 256 295 11,000 900 Level Atlanta Center
Wed 12:28:04 PM 34.4067 -84.5928 321° Northwest 246 283 12,800 1,900 Climbing Atlanta Center
Wed 12:29:04 PM 34.4439 -84.6306 320° Northwest 203 234 14,800 1,700 Climbing Atlanta Center
Wed 12:30:04 PM 34.4856 -84.6714 321° Northwest 182 209 16,200 1,550 Climbing Atlanta Center
Wed 12:31:04 PM 34.5292 -84.7144 321° Northwest 194 223 17,900 1,750 Climbing Atlanta Center
Wed 12:32:04 PM 34.5686 -84.7553 320° Northwest 189 217 19,700 1,050 Climbing Atlanta Center
Wed 12:33:04 PM 34.6058 -84.7933 320° Northwest 189 217 20,000 150 Climbing Atlanta Center
Wed 12:34:04 PM 34.6556 -84.8469 318° Northwest 211 243 20,000  Level Atlanta Center
Wed 12:35:04 PM 34.7158 -84.9056 321° Northwest 232 267 20,000  Level Atlanta Center
Wed 12:36:04 PM 34.7697 -84.9642 318° Northwest 247 284 20,000  Level Atlanta Center
Wed 12:37:04 PM 34.8214 -85.0156 321° Northwest 253 291 20,000  Level Atlanta Center
Wed 12:38:04 PM 34.8772 -85.0692 322° Northwest 253 291 20,000  Level Atlanta Center
Wed 12:39:04 PM 34.9311 -85.1256 319° Northwest 253 291 20,000  Level Atlanta Center
Wed 12:40:04 PM 34.9828 -85.1819 318° Northwest 253 291 20,000 -300 Level Atlanta Center
Wed 12:41:04 PM 34.9467 -85.2450 235° Southwest 187 215 19,400 -1,100 Descending Atlanta Center
Wed 12:42:04 PM 34.8656 -85.2083 160° South 176 203 17,800 -1,700 Descending Atlanta Center
Wed 12:43:04 PM 34.7867 -85.1744 161° South 233 268 16,000 -1,800 Descending Atlanta Center
Wed 12:44:04 PM 34.7119 -85.1328 155° Southeast 267 307 14,200 -1,700 Descending Atlanta Center
Wed 12:45:04 PM 34.6392 -85.0942 156° South 286 329 12,600 -1,550 Descending Atlanta Center
Wed 12:46:04 PM 34.5664 -85.0553 156° South 296 341 11,100 -800 Descending Atlanta Center
Wed 12:47:04 PM 34.4978 -85.0167 155° Southeast 279 321 11,000 -150 Descending Atlanta Center
Wed 12:48:04 PM 34.4292 -84.9831 158° South 268 308 10,800 -900 Descending Atlanta Center
Wed 12:49:04 PM 34.3586 -84.9472 157° South 274 315 9,200 -1,350 Descending Atlanta Center
Wed 12:50:04 PM 34.2919 -84.9139 158° South 279 321 8,100 -600 Descending Atlanta Center
Wed 12:51:04 PM 34.2233 -84.8803 158° South 271 312 8,000 -100 Descending Atlanta Center
Wed 12:52:04 PM 34.1653 -84.8397 150° Southeast 260 299 7,900 -450 Descending Atlanta Center
Wed 12:53:04 PM 34.1261 -84.7742 126° Southeast 237 273 7,100 -850 Descending Atlanta Center
Wed 12:54:04 PM 34.0908 -84.7111 124° Southeast 232 267 6,200 -1,000 Descending Atlanta Center
Wed 12:55:04 PM 34.0431 -84.6606 139° Southeast 226 260 5,100 -600 Descending Atlanta Center
Wed 12:56:04 PM 33.9975 -84.6100 137° Southeast 231 266 5,000 -50 Descending Atlanta Center
Wed 12:57:04 PM 33.9456 -84.5572 140° Southeast 226 260 5,000  Level Atlanta Center
Wed 12:58:04 PM 33.9081 -84.5194 140° Southeast 220 253 5,000  Level Atlanta Center
Wed 12:58:45 PM 33.8667 -84.4833 144° Southeast 212 244 5,000 -442 Level Atlanta TRACON
Wed 12:59:39 PM 33.8333 -84.4333 129° Southeast 218 251 4,300 -895 Descending Atlanta TRACON
Wed 01:00:39 PM 33.8000 -84.3667 121° Southeast 203 234 3,300 -1,050 Descending Atlanta TRACON
Wed 01:01:39 PM 33.8333 -84.3333 40° Northeast 149 171 2,200 -1,100 Descending Atlanta TRACON
Wed 01:03:00 PM 33.8667 -84.3000 23° Northeast  Level FlightAware Approximate
Wed 01:10:00 PM 33.8756 -84.3020 23° Northeast  Level Estimated
Wed 01:11:00 PM 33.8756 -84.3020 23° Northeast  Level Estimated

Login

Don't have an account? Register now (free) for customized features, flight alerts, and more!